KOLE

Cattaraugus County-Olean Airport

Olean, New York, USA
METAR KOLE 261315Z AUTO 00000KT 10SM CLR 17/11 A2991 RMK AO2
Observed Flight Rules
May-26 @ 13:15 UTC (15 minutes ago) Visual Flight Rules
Visibility Clouds
10 miles
  • Clear skies
Temperatures Readings
Current 17°C / 63°F
Dewpoint 11°C / 52°F
Humidity 68%
Altimeter 29.91" Hg
Pressure 1013 hPa
Elevation 651
METAR KOLE 261315Z AUTO 00000KT 10SM CLR 17/11 A2991 RMK AO2
Observed Flight Rules
May-26 @ 13:15 UTC
(15 minutes ago)
VFR
Clouds
  • Clear skies
Temperature Dewpoint
17°C / 63°F 11°C / 52°F
Humidity Altimeter Pressure
68% 29.91" Hg 1013 hPa